Terminal Aerodrome Forecast
Issued by NWS

Home | Current Version | Previous Version | Text Only | Print | Product List | Glossary On
Versions: 1 2 3 4 5 6 7 8 9 10 11 12 13 14 15 16 17 18
000
FTUS43 KLSX 241735
TAFCPS
TAF
KCPS 241735Z 2418/2518 24012G20KT P6SM BKN035
     FM242000 24012G20KT P6SM VCTS BKN040CB
      TEMPO 2422/2501 4SM TSRA BKN035CB
     FM250300 20008KT P6SM SCT050
     FM251500 26008KT P6SM SCT060=

USA.gov is the U.S. government's official web portal to all federal, state and local government web resources and services.